createdAt,value
2019-02-10T00:00:56.996Z,94271.30
2019-02-10T00:03:25.608Z,94268.00
2019-02-10T00:05:54.296Z,94272.47
2019-02-10T00:08:22.924Z,94288.05
2019-02-10T00:10:51.645Z,94278.52
2019-02-10T00:13:25.428Z,94280.41
2019-02-10T00:15:54.194Z,94282.06
2019-02-10T00:18:22.911Z,94278.52
2019-02-10T00:20:51.589Z,94268.27
2019-02-10T00:23:20.214Z,94274.55
2019-02-10T00:25:48.893Z,94273.31
2019-02-10T00:28:17.562Z,94275.73
2019-02-10T00:30:46.251Z,94273.60
2019-02-10T00:33:14.863Z,94267.52
2019-02-10T00:35:43.545Z,94261.45
2019-02-10T00:38:12.229Z,94256.66
2019-02-10T00:40:40.855Z,94252.21
2019-02-10T00:43:09.559Z,94252.02
2019-02-10T00:45:38.181Z,94247.88
2019-02-10T00:48:06.835Z,94236.59
2019-02-10T00:50:35.464Z,94224.90
2019-02-10T00:53:04.134Z,94220.20
2019-02-10T00:55:32.759Z,94219.42
2019-02-10T00:58:01.442Z,94220.61
2019-02-10T01:00:30.066Z,94226.45
2019-02-10T01:02:58.759Z,94227.98
2019-02-10T01:05:27.433Z,94232.89
2019-02-10T01:07:59.063Z,94232.61
2019-02-10T01:10:27.753Z,94226.91
2019-02-10T01:12:56.369Z,94235.37
2019-02-10T01:15:24.989Z,94232.35
2019-02-10T01:17:56.259Z,94229.61
2019-02-10T01:20:24.855Z,94228.17
2019-02-10T01:22:53.522Z,94219.36
2019-02-10T01:25:22.238Z,94213.18
2019-02-10T01:27:50.843Z,94216.77
2019-02-10T01:30:19.534Z,94219.69
2019-02-10T01:32:48.650Z,94212.66
2019-02-10T01:35:17.332Z,94213.93
2019-02-10T01:37:46.018Z,94208.42
2019-02-10T01:40:14.696Z,94204.93
2019-02-10T01:42:43.378Z,94210.09
2019-02-10T01:45:12.791Z,94211.09
2019-02-10T01:47:41.478Z,94194.06
2019-02-10T01:50:11.383Z,94197.45
2019-02-10T01:52:40.012Z,94191.89
2019-02-10T01:55:13.623Z,94186.44
2019-02-10T01:57:42.219Z,94181.19
2019-02-10T02:00:17.585Z,94180.67
2019-02-10T02:02:46.208Z,94167.25
2019-02-10T02:05:14.898Z,94159.61
2019-02-10T02:07:43.566Z,94158.53
2019-02-10T02:10:15.321Z,94154.25
2019-02-10T02:12:43.995Z,94147.41
2019-02-10T02:15:14.524Z,94142.53
2019-02-10T02:17:43.198Z,94147.66
2019-02-10T02:20:13.041Z,94140.27
2019-02-10T02:22:41.635Z,94132.20
2019-02-10T02:25:11.876Z,94139.89
2019-02-10T02:27:40.858Z,94140.88
2019-02-10T02:30:12.541Z,94140.50
2019-02-10T02:32:41.231Z,94138.34
2019-02-10T02:35:10.004Z,94133.81
2019-02-10T02:37:39.007Z,94131.42
2019-02-10T02:40:11.758Z,94128.91
2019-02-10T02:42:41.190Z,94126.46
2019-02-10T02:45:12.948Z,94113.12
2019-02-10T02:47:41.635Z,94101.16
2019-02-10T02:50:11.428Z,94106.72
2019-02-10T02:52:40.130Z,94100.57
2019-02-10T02:55:10.044Z,94091.67
2019-02-10T02:57:38.718Z,94096.35
2019-02-10T03:00:09.534Z,94089.14
2019-02-10T03:02:38.193Z,94080.80
2019-02-10T03:05:09.030Z,94078.00
2019-02-10T03:07:37.718Z,94074.14
2019-02-10T03:10:08.328Z,94068.28
2019-02-10T03:12:36.967Z,94065.96
2019-02-10T03:15:07.947Z,94067.03
2019-02-10T03:17:36.595Z,94060.27
2019-02-10T03:20:07.321Z,94062.82
2019-02-10T03:22:36.003Z,94065.78
2019-02-10T03:25:06.857Z,94054.75
2019-02-10T03:27:35.567Z,94056.63
2019-02-10T03:30:06.100Z,94047.70
2019-02-10T03:32:34.799Z,94046.45
2019-02-10T03:35:04.374Z,94048.63
2019-02-10T03:37:33.055Z,94034.51
2019-02-10T03:40:01.679Z,94039.70
2019-02-10T03:42:30.357Z,94039.23
2019-02-10T03:44:59.035Z,94033.59
2019-02-10T03:47:27.722Z,94031.52
2019-02-10T03:49:56.418Z,94035.00
2019-02-10T03:52:25.041Z,94036.72
2019-02-10T03:54:53.723Z,94028.87
2019-02-10T03:57:22.338Z,94031.87
2019-02-10T03:59:50.957Z,94032.36
2019-02-10T04:02:19.653Z,94028.95
2019-02-10T04:04:48.335Z,94039.20
2019-02-10T04:07:16.950Z,94030.23
2019-02-10T04:09:45.566Z,94025.61
2019-02-10T04:12:14.252Z,94022.55
2019-02-10T04:14:42.923Z,94021.94
2019-02-10T04:17:11.540Z,94016.03
2019-02-10T04:19:40.216Z,94011.44
2019-02-10T04:22:08.834Z,94006.55
2019-02-10T04:24:37.545Z,93998.03
2019-02-10T04:27:06.144Z,94003.49
2019-02-10T04:29:34.763Z,94003.30
2019-02-10T04:32:03.465Z,93998.83
2019-02-10T04:34:32.075Z,93990.73
2019-02-10T04:37:00.766Z,93994.74
2019-02-10T04:39:29.389Z,93994.55
2019-02-10T04:41:58.050Z,93985.44
2019-02-10T04:44:26.677Z,93985.74
2019-02-10T04:46:55.373Z,93980.58
2019-02-10T04:49:24.011Z,93979.78
2019-02-10T04:51:52.685Z,93977.23
2019-02-10T04:54:21.369Z,93972.35
2019-02-10T04:56:50.068Z,93968.91
2019-02-10T04:59:18.782Z,93968.98
2019-02-10T05:01:47.402Z,93961.58
2019-02-10T05:04:16.087Z,93961.67
2019-02-10T05:06:44.726Z,93948.70
2019-02-10T05:09:13.410Z,93942.48
2019-02-10T05:11:42.048Z,93943.04
2019-02-10T05:14:10.758Z,93930.53
2019-02-10T05:16:39.378Z,93931.55
2019-02-10T05:19:08.071Z,93929.02
2019-02-10T05:21:36.749Z,93928.04
2019-02-10T05:24:05.390Z,93926.59
2019-02-10T05:26:34.095Z,93915.77
2019-02-10T05:29:02.719Z,93911.59
2019-02-10T05:31:31.405Z,93905.91
2019-02-10T05:34:00.084Z,93898.92
2019-02-10T05:36:28.756Z,93893.28
2019-02-10T05:38:57.369Z,93889.56
2019-02-10T05:41:26.100Z,93888.34
2019-02-10T05:43:54.719Z,93885.40
2019-02-10T05:46:23.455Z,93872.16
2019-02-10T05:48:52.109Z,93875.56
2019-02-10T05:51:20.813Z,93863.45
2019-02-10T05:53:49.437Z,93858.77
2019-02-10T05:56:18.107Z,93852.34
2019-02-10T05:58:46.798Z,93853.72
2019-02-10T06:01:51.636Z,93849.80
2019-02-10T06:04:20.301Z,93853.52
2019-02-10T06:06:49.002Z,93849.56
2019-02-10T06:09:17.616Z,93842.48
2019-02-10T06:11:48.089Z,93843.24
2019-02-10T06:14:16.727Z,93844.50
2019-02-10T06:16:45.404Z,93849.95
2019-02-10T06:19:14.095Z,93837.43
2019-02-10T06:21:42.756Z,93831.64
2019-02-10T06:24:11.416Z,93825.65
2019-02-10T06:26:40.032Z,93830.64
2019-02-10T06:29:08.721Z,93831.42
2019-02-10T06:31:37.351Z,93832.06
2019-02-10T06:34:06.034Z,93822.36
2019-02-10T06:36:34.770Z,93822.69
2019-02-10T06:39:04.889Z,93826.31
2019-02-10T06:41:33.649Z,93810.95
2019-02-10T06:44:02.475Z,93808.09
2019-02-10T06:46:31.108Z,93798.30
2019-02-10T06:48:59.791Z,93789.28
2019-02-10T06:51:28.404Z,93796.75
2019-02-10T06:53:58.562Z,93801.18
2019-02-10T06:56:27.191Z,93803.58
2019-02-10T06:58:55.892Z,93793.09
2019-02-10T07:01:35.427Z,93782.65
2019-02-10T07:04:07.279Z,93786.42
2019-02-10T07:06:36.036Z,93799.63
2019-02-10T07:09:05.884Z,93811.03
2019-02-10T07:11:34.623Z,93803.20
2019-02-10T07:14:03.338Z,93802.78
2019-02-10T07:16:37.693Z,93805.27
2019-02-10T07:19:35.434Z,93792.59
2019-02-10T07:22:23.485Z,93789.05
2019-02-10T07:25:16.114Z,93784.94
2019-02-10T07:28:03.032Z,93780.07
2019-02-10T07:30:37.556Z,93776.06
2019-02-10T07:33:08.898Z,93768.23
2019-02-10T07:35:49.480Z,93769.00
2019-02-10T07:38:38.884Z,93771.47
2019-02-10T07:41:16.834Z,93759.23
2019-02-10T07:44:11.043Z,93760.47
2019-02-10T07:46:59.104Z,93766.02
2019-02-10T07:49:40.095Z,93771.16
2019-02-10T07:52:27.020Z,93763.33
2019-02-10T07:55:17.181Z,93760.65
2019-02-10T07:57:51.809Z,93749.63
2019-02-10T08:00:31.211Z,93739.02
2019-02-10T08:03:11.915Z,93738.26
2019-02-10T08:05:49.716Z,93729.27
2019-02-10T08:08:21.577Z,93729.03
2019-02-10T08:11:14.494Z,93726.53
2019-02-10T08:14:04.229Z,93720.26
2019-02-10T08:16:55.453Z,93719.04
2019-02-10T08:19:42.350Z,93714.77
2019-02-10T08:22:19.921Z,93708.77
2019-02-10T08:25:23.677Z,93700.52
2019-02-10T08:28:13.542Z,93693.66
2019-02-10T08:31:01.554Z,93697.80
2019-02-10T08:33:42.274Z,93696.03
2019-02-10T08:36:19.901Z,93693.11
2019-02-10T08:39:00.452Z,93685.73
2019-02-10T08:41:35.202Z,93683.09
2019-02-10T08:44:31.765Z,93693.69
2019-02-10T08:47:06.593Z,93680.72
2019-02-10T08:50:01.597Z,93672.31
2019-02-10T08:52:38.927Z,93673.31
2019-02-10T08:55:08.755Z,93677.75
2019-02-10T08:57:38.235Z,93668.03
2019-02-10T09:00:26.679Z,93663.94
2019-02-10T09:02:55.546Z,93652.15
2019-02-10T09:05:24.426Z,93649.31
2019-02-10T09:07:53.165Z,93642.03
2019-02-10T09:10:21.983Z,93638.53
2019-02-10T09:12:50.734Z,93632.66
2019-02-10T09:15:19.656Z,93614.13
2019-02-10T09:17:48.545Z,93604.94
2019-02-10T09:20:17.244Z,93598.20
2019-02-10T09:22:45.972Z,93598.86
2019-02-10T09:25:17.088Z,93587.55
2019-02-10T09:27:45.857Z,93583.47
2019-02-10T09:30:14.839Z,93581.23
2019-02-10T09:32:43.714Z,93580.99
2019-02-10T09:35:12.696Z,93585.02
2019-02-10T09:37:41.947Z,93572.00
2019-02-10T09:40:17.946Z,93566.16
2019-02-10T09:42:47.112Z,93560.91
2019-02-10T09:45:17.442Z,93564.97
2019-02-10T09:47:49.224Z,93558.61
2019-02-10T09:50:19.657Z,93553.57
2019-02-10T09:52:49.686Z,93548.70
2019-02-10T09:55:19.183Z,93535.30
2019-02-10T09:57:47.935Z,93535.41
2019-02-10T10:00:16.825Z,93532.09
2019-02-10T10:02:45.514Z,93531.17
2019-02-10T10:05:15.582Z,93530.81
2019-02-10T10:07:44.721Z,93522.69
2019-02-10T10:10:14.318Z,93523.48
2019-02-10T10:12:43.330Z,93512.69
2019-02-10T10:15:14.464Z,93497.75
2019-02-10T10:17:43.274Z,93496.93
2019-02-10T10:20:14.567Z,93488.55
2019-02-10T10:22:45.143Z,93469.72
2019-02-10T10:25:14.356Z,93471.34
2019-02-10T10:27:43.340Z,93471.80
2019-02-10T10:30:14.824Z,93458.19
2019-02-10T10:32:43.567Z,93460.94
2019-02-10T10:35:12.456Z,93452.80
2019-02-10T10:37:41.255Z,93449.77
2019-02-10T10:40:12.885Z,93452.63
2019-02-10T10:42:42.001Z,93447.08
2019-02-10T10:45:16.931Z,93428.42
2019-02-10T10:47:46.340Z,93425.86
2019-02-10T10:50:15.326Z,93407.74
2019-02-10T10:52:44.237Z,93407.02
2019-02-10T10:55:13.725Z,93393.42
2019-02-10T10:57:42.517Z,93382.81
2019-02-10T11:00:13.669Z,93370.75
2019-02-10T11:02:42.346Z,93362.69
2019-02-10T11:05:11.343Z,93360.05
2019-02-10T11:07:39.962Z,93344.47
2019-02-10T11:10:11.320Z,93336.41
2019-02-10T11:12:40.068Z,93324.44
2019-02-10T11:15:13.461Z,93320.45
2019-02-10T11:17:42.254Z,93309.17
2019-02-10T11:20:11.964Z,93309.08
2019-02-10T11:22:40.754Z,93294.60
2019-02-10T11:25:13.092Z,93306.50
2019-02-10T11:27:42.518Z,93301.91
2019-02-10T11:30:14.384Z,93304.00
2019-02-10T11:32:43.196Z,93301.41
2019-02-10T11:35:12.066Z,93293.25
2019-02-10T11:37:40.850Z,93284.45
2019-02-10T11:40:11.822Z,93280.27
2019-02-10T11:42:40.580Z,93265.81
2019-02-10T11:45:13.791Z,93273.55
2019-02-10T11:47:44.306Z,93272.39
2019-02-10T11:50:14.166Z,93250.73
2019-02-10T11:52:42.902Z,93249.39
2019-02-10T11:55:12.663Z,93233.55
2019-02-10T11:57:42.551Z,93225.98
2019-02-10T12:00:18.299Z,93227.20
2019-02-10T12:02:47.066Z,93219.50
2019-02-10T12:05:15.759Z,93220.95
2019-02-10T12:07:44.541Z,93209.86
2019-02-10T12:10:15.691Z,93211.97
2019-02-10T12:12:44.499Z,93195.81
2019-02-10T12:15:15.518Z,93188.88
2019-02-10T12:17:44.640Z,93171.39
2019-02-10T12:20:14.695Z,93173.92
2019-02-10T12:22:49.835Z,93168.77
2019-02-10T12:25:13.747Z,93155.66
2019-02-10T12:27:42.397Z,93156.84
2019-02-10T12:30:17.567Z,93159.29
2019-02-10T12:32:46.211Z,93149.94
2019-02-10T12:35:16.193Z,93151.08
2019-02-10T12:37:46.910Z,93149.88
2019-02-10T12:40:15.596Z,93146.09
2019-02-10T12:42:44.275Z,93133.95
2019-02-10T12:45:13.950Z,93132.72
2019-02-10T12:47:44.486Z,93132.20
2019-02-10T12:50:14.072Z,93133.98
2019-02-10T12:52:42.914Z,93128.72
2019-02-10T12:55:12.589Z,93121.03
2019-02-10T12:57:41.700Z,93106.86
2019-02-10T13:00:17.366Z,93101.30
2019-02-10T13:02:46.160Z,93100.85
2019-02-10T13:05:14.855Z,93098.33
2019-02-10T13:07:43.529Z,93098.79
2019-02-10T13:10:17.385Z,93088.28
2019-02-10T13:12:45.530Z,93082.09
2019-02-10T13:15:14.400Z,93082.52
2019-02-10T13:17:43.213Z,93081.23
2019-02-10T13:20:15.567Z,93069.80
2019-02-10T13:22:46.485Z,93077.44
2019-02-10T13:25:15.080Z,93070.48
2019-02-10T13:27:44.201Z,93068.11
2019-02-10T13:30:16.882Z,93062.72
2019-02-10T13:32:48.787Z,93058.56
2019-02-10T13:35:17.388Z,93037.06
2019-02-10T13:37:46.200Z,93023.70
2019-02-10T13:40:22.359Z,93030.34
2019-02-10T13:42:51.372Z,93027.92
2019-02-10T13:45:20.043Z,93016.67
2019-02-10T13:47:49.137Z,93005.92
2019-02-10T13:50:20.082Z,93003.27
2019-02-10T13:52:49.292Z,92987.44
2019-02-10T13:55:21.758Z,92988.23
2019-02-10T13:57:50.888Z,92986.55
2019-02-10T14:00:20.966Z,92980.63
2019-02-10T14:02:50.117Z,92971.48
2019-02-10T14:05:20.548Z,92968.11
2019-02-10T14:07:50.956Z,92977.27
2019-02-10T14:10:25.594Z,92971.08
2019-02-10T14:12:51.101Z,92970.03
2019-02-10T14:15:20.445Z,92966.36
2019-02-10T14:17:51.770Z,92962.31
2019-02-10T14:20:21.756Z,92958.72
2019-02-10T14:22:51.021Z,92950.00
2019-02-10T14:25:21.354Z,92949.39
2019-02-10T14:27:50.144Z,92937.33
2019-02-10T14:30:23.628Z,92936.39
2019-02-10T14:32:52.337Z,92928.98
2019-02-10T14:35:21.324Z,92922.05
2019-02-10T14:37:50.116Z,92921.23
2019-02-10T14:40:18.781Z,92916.53
2019-02-10T14:42:47.588Z,92907.91
2019-02-10T14:45:16.781Z,92916.15
2019-02-10T14:47:45.662Z,92914.16
2019-02-10T14:50:18.760Z,92908.79
2019-02-10T14:52:47.459Z,92918.03
2019-02-10T14:55:16.236Z,92914.83
2019-02-10T14:57:45.191Z,92906.15
2019-02-10T15:00:16.784Z,92905.42
2019-02-10T15:02:45.878Z,92903.41
2019-02-10T15:05:14.557Z,92899.39
2019-02-10T15:07:43.654Z,92899.27
2019-02-10T15:10:20.386Z,92897.19
2019-02-10T15:12:49.115Z,92893.53
2019-02-10T15:15:17.939Z,92894.39
2019-02-10T15:17:46.590Z,92890.15
2019-02-10T15:20:15.521Z,92883.73
2019-02-10T15:22:44.468Z,92881.31
2019-02-10T15:25:14.188Z,92877.46
2019-02-10T15:27:42.878Z,92868.30
2019-02-10T15:30:17.391Z,92870.59
2019-02-10T15:32:46.497Z,92877.03
2019-02-10T15:35:15.188Z,92862.22
2019-02-10T15:37:44.173Z,92849.84
2019-02-10T15:40:13.486Z,92842.14
2019-02-10T15:42:42.275Z,92842.06
2019-02-10T15:45:15.570Z,92841.27
2019-02-10T15:47:44.380Z,92839.82
2019-02-10T15:50:15.223Z,92839.35
2019-02-10T15:52:44.075Z,92831.83
2019-02-10T15:55:13.550Z,92825.72
2019-02-10T15:57:42.476Z,92821.78
2019-02-10T16:00:14.884Z,92813.73
2019-02-10T16:02:43.632Z,92815.88
2019-02-10T16:05:12.642Z,92816.53
2019-02-10T16:07:42.851Z,92806.14
2019-02-10T16:10:17.279Z,92790.86
2019-02-10T16:12:46.160Z,92778.47
2019-02-10T16:15:14.846Z,92779.47
2019-02-10T16:17:43.551Z,92777.02
2019-02-10T16:20:15.943Z,92780.45
2019-02-10T16:22:44.762Z,92779.89
2019-02-10T16:25:13.704Z,92776.90
2019-02-10T16:27:42.430Z,92786.34
2019-02-10T16:30:15.334Z,92789.53
2019-02-10T16:32:49.690Z,92791.59
2019-02-10T16:35:15.853Z,92782.40
2019-02-10T16:37:44.490Z,92783.32
2019-02-10T16:40:18.444Z,92775.56
2019-02-10T16:42:47.377Z,92775.41
2019-02-10T16:45:16.216Z,92781.34
2019-02-10T16:47:44.934Z,92776.63
2019-02-10T16:50:15.124Z,92770.02
2019-02-10T16:52:43.904Z,92773.30
2019-02-10T16:55:17.262Z,92738.37
2019-02-10T16:57:46.739Z,92749.27
2019-02-10T17:00:17.540Z,92753.17
2019-02-10T17:02:47.070Z,92752.83
2019-02-10T17:05:16.629Z,92738.94
2019-02-10T17:07:45.642Z,92734.53
2019-02-10T17:10:24.453Z,92734.72
2019-02-10T17:12:54.776Z,92731.66
2019-02-10T17:15:23.697Z,92719.78
2019-02-10T17:17:53.007Z,92716.57
2019-02-10T17:20:22.383Z,92706.70
2019-02-10T17:22:53.231Z,92708.90
2019-02-10T17:25:24.663Z,92715.56
2019-02-10T17:27:54.834Z,92717.78
2019-02-10T17:30:23.939Z,92719.30
2019-02-10T17:32:54.603Z,92723.60
2019-02-10T17:35:24.620Z,92728.18
2019-02-10T17:37:55.264Z,92721.13
2019-02-10T17:40:42.005Z,92715.65
2019-02-10T17:43:11.210Z,92716.20
2019-02-10T17:45:39.952Z,92723.34
2019-02-10T17:48:08.783Z,92722.94
2019-02-10T17:50:38.428Z,92723.41
2019-02-10T17:53:07.348Z,92721.77
2019-02-10T17:55:36.410Z,92729.05
2019-02-10T17:58:06.570Z,92723.61
2019-02-10T18:00:40.487Z,92721.59
2019-02-10T18:03:10.085Z,92716.23
2019-02-10T18:05:41.058Z,92705.37
2019-02-10T18:08:10.031Z,92711.52
2019-02-10T18:10:42.423Z,92704.70
2019-02-10T18:13:13.228Z,92701.14
2019-02-10T18:16:02.612Z,92700.19
2019-02-10T18:18:39.201Z,92699.28
2019-02-10T18:21:28.369Z,92699.20
2019-02-10T18:24:12.590Z,92703.94
2019-02-10T18:26:45.900Z,92705.40
2019-02-10T18:29:19.166Z,92691.94
2019-02-10T18:31:49.605Z,92695.81
2019-02-10T18:34:22.652Z,92696.11
2019-02-10T18:36:58.807Z,92695.75
2019-02-10T18:39:32.094Z,92698.00
2019-02-10T18:42:05.783Z,92688.56
2019-02-10T18:44:42.496Z,92674.64
2019-02-10T18:47:15.822Z,92671.95
2019-02-10T18:49:48.926Z,92682.80
2019-02-10T18:52:22.543Z,92683.64
2019-02-10T18:54:55.960Z,92684.73
2019-02-10T18:57:26.237Z,92681.91
2019-02-10T19:00:01.407Z,92686.09
2019-02-10T19:02:31.979Z,92690.89
2019-02-10T19:05:17.710Z,92696.02
2019-02-10T19:07:48.655Z,92698.34
2019-02-10T19:10:22.033Z,92700.24
2019-02-10T19:12:59.950Z,92700.97
2019-02-10T19:15:40.797Z,92705.80
2019-02-10T19:18:21.106Z,92698.78
2019-02-10T19:21:04.992Z,92694.53
2019-02-10T19:23:35.529Z,92686.66
2019-02-10T19:26:10.885Z,92693.28
2019-02-10T19:28:45.297Z,92702.27
2019-02-10T19:31:28.355Z,92692.23
2019-02-10T19:33:58.942Z,92687.92
2019-02-10T19:36:44.263Z,92698.91
2019-02-10T19:39:15.386Z,92690.73
2019-02-10T19:41:55.702Z,92695.27
2019-02-10T19:44:31.166Z,92691.11
2019-02-10T19:47:01.829Z,92679.95
2019-02-10T19:49:32.149Z,92679.81
2019-02-10T19:52:22.577Z,92672.25
2019-02-10T19:54:59.432Z,92668.48
2019-02-10T19:57:33.609Z,92661.29
2019-02-10T20:00:12.843Z,92658.84
2019-02-10T20:03:01.836Z,92656.52
2019-02-10T20:05:32.247Z,92655.50
2019-02-10T20:08:08.507Z,92650.93
2019-02-10T20:10:41.245Z,92657.71
2019-02-10T20:13:11.609Z,92667.39
2019-02-10T20:15:48.483Z,92672.48
2019-02-10T20:18:19.019Z,92681.66
2019-02-10T20:20:52.957Z,92689.48
2019-02-10T20:23:32.187Z,92695.31
2019-02-10T20:26:19.168Z,92697.78
2019-02-10T20:28:53.310Z,92705.94
2019-02-10T20:31:41.668Z,92729.69
2019-02-10T20:34:12.279Z,92739.16
2019-02-10T20:36:54.995Z,92753.97
2019-02-10T20:39:25.854Z,92763.64
2019-02-10T20:42:12.362Z,92767.48
2019-02-10T20:44:44.805Z,92772.96
2019-02-10T20:47:33.667Z,92813.36
2019-02-10T20:50:03.974Z,92853.62
2019-02-10T20:52:46.154Z,92885.09
2019-02-10T20:55:15.408Z,92886.29
2019-02-10T20:57:57.488Z,92897.67
2019-02-10T21:00:33.653Z,92909.77
2019-02-10T21:03:04.236Z,92910.13
2019-02-10T21:05:50.681Z,92926.52
2019-02-10T21:08:27.200Z,92915.38
2019-02-10T21:11:07.008Z,92924.66
2019-02-10T21:13:40.339Z,92934.12
2019-02-10T21:16:10.612Z,92944.63
2019-02-10T21:18:43.918Z,92939.39
2019-02-10T21:21:15.616Z,92954.66
2019-02-10T21:23:51.933Z,92951.56
2019-02-10T21:26:22.285Z,92968.92
2019-02-10T21:28:52.580Z,92968.84
2019-02-10T21:31:22.935Z,92976.52
2019-02-10T21:34:02.245Z,92975.91
2019-02-10T21:36:48.059Z,92995.05
2019-02-10T21:39:18.359Z,92997.57
2019-02-10T21:42:03.755Z,92999.27
2019-02-10T21:44:37.031Z,93014.73
2019-02-10T21:47:10.338Z,93007.14
2019-02-10T21:49:39.012Z,93007.70
2019-02-10T21:52:07.802Z,93010.67
2019-02-10T21:54:36.588Z,93025.55
2019-02-10T21:57:05.276Z,93024.03
2019-02-10T21:59:34.058Z,93035.66
2019-02-10T22:02:02.754Z,93046.27
2019-02-10T22:04:31.539Z,93034.49
2019-02-10T22:07:00.223Z,93044.00
2019-02-10T22:09:29.009Z,93040.80
2019-02-10T22:11:57.694Z,93051.10
2019-02-10T22:14:26.487Z,93053.03
2019-02-10T22:16:55.292Z,93033.05
2019-02-10T22:19:23.967Z,93048.10
2019-02-10T22:21:52.744Z,93058.66
2019-02-10T22:24:21.367Z,93047.74
2019-02-10T22:26:51.043Z,93067.84
2019-02-10T22:29:19.729Z,93072.02
2019-02-10T22:31:48.513Z,93066.09
2019-02-10T22:34:17.203Z,93074.00
2019-02-10T22:36:45.925Z,93083.14
2019-02-10T22:39:14.589Z,93097.05
2019-02-10T22:41:43.274Z,93107.12
2019-02-10T22:44:12.080Z,93098.73
2019-02-10T22:46:40.711Z,93098.09
2019-02-10T22:49:10.961Z,93117.16
2019-02-10T22:51:39.748Z,93125.98
2019-02-10T22:54:09.586Z,93120.06
2019-02-10T22:56:38.351Z,93118.58
2019-02-10T22:59:07.449Z,93114.73
2019-02-10T23:01:36.449Z,93123.97
2019-02-10T23:04:05.123Z,93123.84
2019-02-10T23:06:33.808Z,93113.55
2019-02-10T23:09:02.521Z,93132.33
2019-02-10T23:11:31.295Z,93128.90
2019-02-10T23:14:02.227Z,93129.69
2019-02-10T23:16:31.024Z,93145.77
2019-02-10T23:18:59.643Z,93146.84
2019-02-10T23:21:31.153Z,93133.73
2019-02-10T23:23:59.839Z,93131.66
2019-02-10T23:26:28.630Z,93135.11
2019-02-10T23:28:57.430Z,93139.73
2019-02-10T23:31:26.102Z,93137.87
2019-02-10T23:33:57.092Z,93123.77
2019-02-10T23:36:25.323Z,93118.14
2019-02-10T23:38:54.130Z,93107.88
2019-02-10T23:41:23.007Z,93096.33
2019-02-10T23:43:51.792Z,93089.42
2019-02-10T23:46:20.415Z,93092.45
2019-02-10T23:48:49.166Z,93087.75
2019-02-10T23:51:18.154Z,93080.57
2019-02-10T23:53:46.862Z,93070.80
2019-02-10T23:56:15.875Z,93075.83
2019-02-10T23:58:44.622Z,93096.93
